createdAt,value
2023-03-19T00:03:13.567Z,62.00
2023-03-19T00:09:15.546Z,59.50
2023-03-19T00:15:17.310Z,59.00
2023-03-19T00:21:19.075Z,59.80
2023-03-19T00:27:20.928Z,59.20
2023-03-19T00:33:22.513Z,63.40
2023-03-19T00:39:24.091Z,57.20
2023-03-19T00:45:25.701Z,58.10
2023-03-19T00:51:27.211Z,54.40
2023-03-19T00:57:29.709Z,57.20
2023-03-19T01:03:31.309Z,57.80
2023-03-19T01:09:32.935Z,53.30
2023-03-19T01:15:42.145Z,54.60
2023-03-19T01:21:45.618Z,57.20
2023-03-19T01:27:50.717Z,52.60
2023-03-19T01:33:52.210Z,58.10
2023-03-19T01:40:15.445Z,57.00
2023-03-19T01:46:36.313Z,52.80
2023-03-19T01:52:57.222Z,50.40
2023-03-19T01:59:12.086Z,47.70
2023-03-19T02:05:28.979Z,48.70
2023-03-19T02:11:34.836Z,52.20
2023-03-19T02:17:38.923Z,52.00
2023-03-19T02:24:07.142Z,53.00
2023-03-19T02:30:35.515Z,54.40
2023-03-19T02:36:45.394Z,47.40
2023-03-19T02:42:46.936Z,50.70
2023-03-19T02:48:54.485Z,46.00
2023-03-19T02:54:56.085Z,52.60
2023-03-19T03:00:59.554Z,52.70
2023-03-19T03:07:01.736Z,52.50
2023-03-19T03:13:04.919Z,54.50
2023-03-19T03:19:06.549Z,52.40
2023-03-19T03:25:11.805Z,55.60
2023-03-19T03:31:13.793Z,51.60
2023-03-19T03:37:16.586Z,56.90
2023-03-19T03:43:20.171Z,53.30
2023-03-19T03:49:22.540Z,50.70
2023-03-19T03:55:27.592Z,51.80
2023-03-19T04:01:34.656Z,54.70
2023-03-19T04:07:39.696Z,50.90
2023-03-19T04:13:44.014Z,55.20
2023-03-19T04:19:45.484Z,48.70
2023-03-19T04:25:57.892Z,48.60
2023-03-19T04:32:05.601Z,47.90
2023-03-19T04:38:08.307Z,43.90
2023-03-19T04:44:12.991Z,45.70
2023-03-19T04:50:15.607Z,47.50
2023-03-19T04:56:18.130Z,48.20
2023-03-19T05:02:21.322Z,50.50
2023-03-19T05:08:24.876Z,52.20
2023-03-19T05:14:26.424Z,53.90
2023-03-19T05:20:38.071Z,46.70
2023-03-19T05:26:43.053Z,47.70
2023-03-19T05:33:00.026Z,49.20
2023-03-19T05:39:14.587Z,47.60
2023-03-19T05:45:18.918Z,52.90
2023-03-19T05:57:26.740Z,47.30
2023-03-19T06:03:34.633Z,49.80
2023-03-19T06:09:41.258Z,44.60
2023-03-19T06:15:42.872Z,50.10
2023-03-19T06:21:44.602Z,45.70
2023-03-19T06:27:46.250Z,48.20
2023-03-19T06:33:55.832Z,58.90
2023-03-19T06:39:59.914Z,63.00
2023-03-19T06:46:04.263Z,66.40
2023-03-19T06:52:06.343Z,63.00
2023-03-19T06:58:08.010Z,56.90
2023-03-19T07:04:10.701Z,58.90
2023-03-19T07:10:13.138Z,49.70
2023-03-19T07:16:15.593Z,58.00
2023-03-19T07:22:17.635Z,53.00
2023-03-19T07:28:20.062Z,55.70
2023-03-19T07:34:22.484Z,50.50
2023-03-19T07:40:25.206Z,46.80
2023-03-19T07:46:27.682Z,42.70
2023-03-19T07:52:29.601Z,41.30
2023-03-19T07:58:31.122Z,39.80
2023-03-19T08:04:33.155Z,42.90
2023-03-19T08:10:37.457Z,40.00
2023-03-19T08:16:40.103Z,38.30
2023-03-19T08:22:42.429Z,35.80
2023-03-19T08:28:44.519Z,37.00
2023-03-19T08:34:49.013Z,29.70
2023-03-19T08:40:50.999Z,28.30
2023-03-19T08:46:52.680Z,23.10
2023-03-19T08:52:55.342Z,23.80
2023-03-19T08:58:57.337Z,21.90
2023-03-19T09:04:59.346Z,18.40
2023-03-19T09:11:01.433Z,20.10
2023-03-19T09:17:04.111Z,17.20
2023-03-19T09:23:05.872Z,19.40
2023-03-19T09:29:08.604Z,18.90
2023-03-19T09:35:10.223Z,14.30
2023-03-19T09:41:22.341Z,15.00
2023-03-19T09:47:28.231Z,13.00
2023-03-19T09:53:39.151Z,12.70
2023-03-19T09:59:40.762Z,11.30
2023-03-19T10:06:20.540Z,12.90
2023-03-19T10:12:26.144Z,11.70
2023-03-19T10:18:35.502Z,10.80
2023-03-19T10:24:40.077Z,10.00
2023-03-19T10:30:44.580Z,8.50
2023-03-19T10:36:46.301Z,14.10
2023-03-19T10:43:14.412Z,11.80
2023-03-19T10:49:16.241Z,11.20
2023-03-19T10:55:23.788Z,11.80
2023-03-19T11:01:35.770Z,15.30
2023-03-19T11:07:37.741Z,14.20
2023-03-19T11:13:39.514Z,12.10
2023-03-19T11:19:42.443Z,12.60
2023-03-19T11:25:55.342Z,13.30
2023-03-19T11:32:25.835Z,14.70
2023-03-19T11:38:35.692Z,12.50
2023-03-19T11:45:02.383Z,12.00
2023-03-19T11:51:16.663Z,10.80
2023-03-19T11:57:27.824Z,6.70
2023-03-19T12:03:44.646Z,9.20
2023-03-19T12:09:55.272Z,6.60
2023-03-19T12:16:16.417Z,7.70
2023-03-19T12:22:49.952Z,6.30
2023-03-19T12:29:05.961Z,6.60
2023-03-19T12:35:15.741Z,6.70
2023-03-19T12:41:21.524Z,6.90
2023-03-19T12:47:31.918Z,6.50
2023-03-19T12:53:50.080Z,6.70
2023-03-19T13:00:00.138Z,6.00
2023-03-19T13:06:08.594Z,8.10
2023-03-19T13:12:13.314Z,7.20
2023-03-19T13:18:45.687Z,7.40
2023-03-19T13:24:48.304Z,6.10
2023-03-19T13:31:04.587Z,6.80
2023-03-19T13:37:12.574Z,9.00
2023-03-19T13:43:37.398Z,7.20
2023-03-19T13:50:04.536Z,7.90
2023-03-19T13:56:26.562Z,8.00
2023-03-19T14:02:30.734Z,7.70
2023-03-19T14:08:43.001Z,8.30
2023-03-19T14:14:47.281Z,6.40
2023-03-19T14:21:01.505Z,8.30
2023-03-19T14:27:16.708Z,7.70
2023-03-19T14:33:41.268Z,8.50
2023-03-19T14:39:43.554Z,7.20
2023-03-19T14:46:03.416Z,8.90
2023-03-19T14:52:15.146Z,7.60
2023-03-19T14:58:23.592Z,7.70
2023-03-19T15:04:27.993Z,5.70
2023-03-19T15:10:38.085Z,7.20
2023-03-19T15:16:55.486Z,8.40
2023-03-19T15:23:00.563Z,6.80
2023-03-19T15:29:04.426Z,6.90
2023-03-19T15:35:10.419Z,6.70
2023-03-19T15:41:41.297Z,8.40
2023-03-19T15:48:13.592Z,6.20
2023-03-19T15:54:15.700Z,5.60
2023-03-19T16:00:17.954Z,6.50
2023-03-19T16:06:29.716Z,5.90
2023-03-19T16:12:39.179Z,6.10
2023-03-19T16:18:44.902Z,8.50
2023-03-19T16:24:47.617Z,7.50
2023-03-19T16:30:50.140Z,5.60
2023-03-19T16:36:51.990Z,7.60
2023-03-19T16:42:55.401Z,7.60
2023-03-19T16:48:57.112Z,6.70
2023-03-19T16:54:59.412Z,7.60
2023-03-19T17:01:02.426Z,7.60
2023-03-19T17:07:03.950Z,7.30
2023-03-19T17:13:07.408Z,9.20
2023-03-19T17:19:15.537Z,8.50
2023-03-19T17:25:20.228Z,8.60
2023-03-19T17:31:30.590Z,7.70
2023-03-19T17:37:32.295Z,7.30
2023-03-19T17:43:33.970Z,9.20
2023-03-19T17:49:35.500Z,8.80
2023-03-19T17:55:37.029Z,10.50
2023-03-19T18:01:42.390Z,9.40
2023-03-19T18:07:46.988Z,8.20
2023-03-19T18:13:48.817Z,7.10
2023-03-19T18:19:51.752Z,8.90
2023-03-19T18:25:53.516Z,7.90
2023-03-19T18:32:03.327Z,9.30
2023-03-19T18:38:35.217Z,10.00
2023-03-19T18:45:29.145Z,11.90
2023-03-19T18:52:00.678Z,12.50
2023-03-19T18:58:04.031Z,9.10
2023-03-19T19:04:06.395Z,13.10
2023-03-19T19:10:11.092Z,14.80
2023-03-19T19:16:20.498Z,22.10
2023-03-19T19:22:22.557Z,22.60
2023-03-19T19:28:27.263Z,18.50
2023-03-19T19:34:29.304Z,14.50
2023-03-19T19:40:31.148Z,14.10
2023-03-19T19:46:34.103Z,19.80
2023-03-19T19:52:37.041Z,14.50
2023-03-19T19:58:40.187Z,13.10
2023-03-19T20:04:41.790Z,14.10
2023-03-19T20:10:43.831Z,15.80
2023-03-19T20:16:46.640Z,13.70
2023-03-19T20:22:49.386Z,14.80
2023-03-19T20:28:51.695Z,15.00
2023-03-19T20:34:54.513Z,19.10
2023-03-19T20:40:56.966Z,18.40
2023-03-19T20:46:58.530Z,17.20
2023-03-19T20:53:03.021Z,18.20
2023-03-19T21:00:22.416Z,17.40
2023-03-19T21:07:53.187Z,17.80
2023-03-19T21:13:55.052Z,15.50
2023-03-19T21:19:56.882Z,16.70
2023-03-19T21:25:59.956Z,13.90
2023-03-19T21:32:01.559Z,15.10
2023-03-19T21:38:03.101Z,18.20
2023-03-19T21:44:13.601Z,16.90
2023-03-19T21:50:17.600Z,18.00
2023-03-19T21:56:34.767Z,17.90
2023-03-19T22:02:43.464Z,18.50
2023-03-19T22:08:47.473Z,17.40
2023-03-19T22:14:51.485Z,21.90
2023-03-19T22:20:53.941Z,22.10
2023-03-19T22:27:01.135Z,23.20
2023-03-19T22:33:14.053Z,21.20
2023-03-19T22:39:18.060Z,17.60
2023-03-19T22:45:29.806Z,20.20
2023-03-19T22:51:31.555Z,29.70
2023-03-19T22:57:33.120Z,22.50
2023-03-19T23:03:35.054Z,23.40
2023-03-19T23:09:37.162Z,25.30
2023-03-19T23:15:39.193Z,25.40
2023-03-19T23:21:41.150Z,22.70
2023-03-19T23:27:43.368Z,22.40
2023-03-19T23:33:48.025Z,22.80
2023-03-19T23:39:49.462Z,29.10
2023-03-19T23:45:51.779Z,37.70
2023-03-19T23:51:53.381Z,37.40
2023-03-19T23:57:55.994Z,37.60
